createdAt,value
2016-09-22T00:09:27.119Z,83.57
2016-09-22T00:24:22.807Z,84.02
2016-09-22T00:39:22.905Z,84.21
2016-09-22T00:54:20.783Z,83.95
2016-09-22T01:09:20.792Z,83.84
2016-09-22T01:24:27.115Z,84.72
2016-09-22T01:39:25.015Z,84.88
2016-09-22T01:54:22.920Z,85.59
2016-09-22T02:09:25.019Z,87.14
2016-09-22T02:24:22.924Z,85.78
2016-09-22T02:39:20.849Z,85.05
2016-09-22T02:54:29.264Z,84.4
2016-09-22T03:09:20.827Z,84.59
2016-09-22T03:24:22.858Z,83.78
2016-09-22T03:39:20.852Z,84.13
2016-09-22T03:54:20.859Z,85.32
2016-09-22T04:09:22.959Z,84.28
2016-09-22T04:24:20.862Z,85
2016-09-22T04:39:27.177Z,84.44
2016-09-22T04:54:20.831Z,84.98
2016-09-22T05:09:31.262Z,84.41
2016-09-22T05:24:20.852Z,84.74
2016-09-22T05:39:22.966Z,84.67
2016-09-22T05:54:20.845Z,85.55
2016-09-22T06:09:40.911Z,86.01
2016-09-22T06:24:40.007Z,86.76
2016-09-22T06:39:21.673Z,87.45
2016-09-22T06:54:37.989Z,88.23
2016-09-22T07:09:46.306Z,88.89
2016-09-22T07:24:33.499Z,88.75
2016-09-22T07:39:22.976Z,88.38
2016-09-22T07:54:46.327Z,87.72
2016-09-22T08:09:29.301Z,86.45
2016-09-22T08:24:25.095Z,85.37
2016-09-22T08:39:44.028Z,82.54
2016-09-22T08:54:37.942Z,82.09
2016-09-22T09:09:42.245Z,79.96
2016-09-22T09:24:23.023Z,72.46
2016-09-22T09:39:35.939Z,66.35
2016-09-22T09:55:08.900Z,63.53
2016-09-22T10:10:14.881Z,61.33
2016-09-22T10:25:02.156Z,59.73
2016-09-22T10:40:02.233Z,57.05
2016-09-22T11:10:08.531Z,53.98
2016-09-22T11:25:02.217Z,55.21
2016-09-22T11:40:02.200Z,51.78
2016-09-22T12:10:14.772Z,48.64
2016-09-22T15:44:59.768Z,53.52
2016-09-22T15:47:14.188Z,53.88
2016-09-22T16:02:07.499Z,54.6
2016-09-22T16:32:22.521Z,55.79
2016-09-22T17:28:33.767Z,64.67
2016-09-22T17:43:27.106Z,66.64
2016-09-22T17:58:29.074Z,67.68
2016-09-22T18:13:27.051Z,70.03
2016-09-22T18:28:27.095Z,71.34
2016-09-22T18:43:27.099Z,70.95
2016-09-22T22:21:22.745Z,74.11
2016-09-22T22:36:13.905Z,74.62
2016-09-22T22:51:13.892Z,74.96
2016-09-22T23:06:15.989Z,73.47
2016-09-22T23:21:15.891Z,73
2016-09-22T23:36:20.091Z,73.43
2016-09-22T23:51:15.976Z,74.03
